Latest Weather Observations for Winton

IDQ60801

Issued at 11:32 am EST Tuesday 4 August 2015 (issued every 30 minutes, with the page automatically refreshed every 10 minutes)

About weather observations | Map of weather stations | Latest weather observations for QLD | Other Formats
Station Details ID: 037039 Name: WINTON AIRPORT Lat: -22.36 Lon: 143.08 Height: 192.2 m
Data from the previous 72 hours. | See also: Recent months at Winton
Date/Time
EST
Temp
°C
App
Temp
°C
Dew
Point
Rel
Hum
%
Delta-T
°C
Wind Press
QNH
hPa
Press
MSL
hPa
Rain
since 9 am
mm
Dir
 
Spd
km/h
Gust
km/h
Spd
kts
Gust
kts
04/11:30am 17.9 10.6 0.1 30 7.8 SSE 28 37 15 20 1023.3 1022.8 0.0
04/11:00am 17.2 9.2 0.4 32 7.3 SSE 32 39 17 21 1023.6 1023.1 0.0
04/10:30am 17.2 9.1 0.8 33 7.3 SE 33 44 18 24 1023.6 1023.1 0.0
04/10:00am 16.4 7.1 0.5 34 6.9 SE 39 48 21 26 1023.6 1023.1 0.0
04/09:30am 15.6 6.9 -0.2 34 6.8 SSE 35 46 19 25 1023.5 1023.0 0.0
04/09:00am 15.1 6.1 -0.2 35 6.5 SSE 37 48 20 26 1023.4 1022.9 0.0
04/08:30am 14.6 8.0 -0.3 36 6.3 SSE 24 39 13 21 1023.3 1022.8 0.0
04/08:00am 13.2 7.4 -1.2 37 5.9 S 19 24 10 13 1023.1 1022.6 0.0
04/07:30am 12.1 7.0 -1.8 38 5.5 S 15 20 8 11 1022.9 1022.4 0.0
04/07:00am 11.8 6.7 -2.0 38 5.4 S 15 20 8 11 1022.4 1021.9 0.0
04/06:30am 12.0 6.5 -2.2 37 5.6 SSE 17 22 9 12 1022.1 1021.6 0.0
04/06:00am 12.4 6.3 -2.2 36 5.8 SSE 20 28 11 15 1021.7 1021.2 0.0
04/05:30am 12.4 6.5 -2.2 36 5.8 S 19 24 10 13 1021.1 1020.7 0.0
04/05:00am 12.4 6.8 -2.6 35 5.9 S 17 24 9 13 1020.9 1020.5 0.0
04/04:30am 12.6 7.0 -2.8 34 6.0 S 17 22 9 12 1020.8 1020.4 0.0
04/04:00am 12.7 7.5 -3.1 33 6.1 S 15 22 8 12 1020.7 1020.3 0.0
04/03:30am 12.4 7.5 -3.4 33 6.1 S 13 19 7 10 1020.7 1020.3 0.0
04/03:00am 12.8 7.6 -2.6 34 6.0 S 15 19 8 10 1020.6 1020.2 0.0
04/02:30am 13.0 8.2 -2.5 34 6.1 S 13 15 7 8 1020.6 1020.2 0.0
04/02:00am 13.7 8.6 -2.3 33 6.4 S 15 20 8 11 1020.6 1020.2 0.0
04/01:30am 14.1 9.3 -2.3 32 6.6 S 13 17 7 9 1020.7 1020.3 0.0
04/01:00am 14.4 9.3 -2.1 32 6.7 S 15 19 8 10 1020.8 1020.4 0.0
04/12:30am 15.2 10.2 -1.4 32 6.9 S 15 19 8 10 1020.8 1020.4 0.0
04/12:00am 15.9 10.1 -1.2 31 7.1 SSW 19 24 10 13 1020.8 1020.4 0.0
 
Date/Time
EST
Temp
°C
App
Temp
°C
Dew
Point
Rel
Hum
%
Delta-T
°C
Wind Press
QNH
hPa
Press
MSL
hPa
Rain
since 9 am
mm
Dir
 
Spd
km/h
Gust
km/h
Spd
kts
Gust
kts
03/11:30pm 16.3 10.6 -0.8 31 7.3 SSW 19 24 10 13 1021.0 1020.6 0.0
03/11:00pm 17.0 11.1 -0.7 30 7.6 SSW 20 26 11 14 1020.9 1020.5 0.0
03/10:30pm 17.6 12.0 -0.2 30 7.7 SSW 19 24 10 13 1020.8 1020.4 0.0
03/10:00pm 18.1 12.6 0.7 31 7.7 S 19 24 10 13 1020.8 1020.4 0.0
03/09:30pm 18.8 13.2 1.3 31 7.9 SSW 20 26 11 14 1020.7 1020.3 0.0
03/09:00pm 17.5 13.5 0.2 31 7.6 SSW 11 15 6 8 1020.6 1020.2 0.0
03/08:30pm 18.8 14.8 0.4 29 8.2 SSW 11 17 6 9 1020.3 1019.9 0.0
03/08:00pm 20.4 15.5 1.8 29 8.6 SSW 17 19 9 10 1019.9 1019.5 0.0
03/07:30pm 20.9 16.3 1.7 28 8.9 SSW 15 17 8 9 1019.5 1019.1 0.0
03/07:00pm 21.9 17.3 1.6 26 9.5 SSW 15 19 8 10 1018.9 1018.4 0.0
03/06:30pm 23.5 18.7 2.4 25 10.1 SSW 17 22 9 12 1018.7 1018.2 0.0
03/06:00pm 24.8 19.1 2.9 24 10.7 SW 22 30 12 16 1018.5 1018.0 0.0
03/05:30pm 26.2 20.6 3.5 23 11.3 SSW 22 28 12 15 1018.1 1017.6 0.0
03/05:00pm 26.8 21.2 3.3 22 11.7 SSW 22 30 12 16 1017.9 1017.4 0.0
03/04:30pm 27.2 20.4 3.0 21 12.1 SSW 28 35 15 19 1017.7 1017.2 0.0
03/04:00pm 27.9 21.6 3.6 21 12.3 SSW 26 33 14 18 1017.6 1017.1 0.0
03/03:30pm 28.3 22.7 3.2 20 12.6 SSW 22 28 12 15 1017.6 1017.1 0.0
03/03:00pm 28.0 22.2 4.3 22 12.1 SSW 24 46 13 25 1017.8 1017.3 0.0
03/02:30pm 28.1 22.7 4.4 22 12.2 SSW 22 33 12 18 1017.8 1017.3 0.0
03/02:00pm 28.0 22.6 4.3 22 12.1 SSW 22 33 12 18 1018.3 1017.8 0.0
03/01:30pm 27.3 22.4 5.0 24 11.5 SSW 20 30 11 16 1018.7 1018.2 0.0
03/01:00pm 27.4 22.1 5.1 24 11.5 SSW 22 32 12 17 1019.1 1018.6 0.0
03/12:30pm 26.4 21.6 5.4 26 10.9 SSW 20 30 11 16 1019.5 1019.1 0.0
03/12:00pm 25.3 20.4 5.0 27 10.3 SSW 20 30 11 16 1019.9 1019.5 0.0
03/11:30am 24.1 20.1 5.0 29 9.7 S 15 22 8 12 1020.3 1019.9 0.0
03/11:00am 23.4 19.1 5.3 31 9.1 S 17 24 9 13 1020.6 1020.2 0.0
03/10:30am 22.3 17.6 5.3 33 8.6 S 19 28 10 15 1020.9 1020.5 0.0
03/10:00am 21.1 16.2 5.1 35 7.9 S 20 28 11 15 1020.9 1020.5 0.0
03/09:30am 20.4 15.5 5.2 37 7.5 S 20 28 11 15 1020.6 1020.2 0.0
03/09:00am 18.9 13.2 5.0 40 6.8 SSW 24 30 13 16 1020.4 1020.0 0.0
03/08:30am 18.0 12.3 4.9 42 6.3 SSW 24 30 13 16 1020.0 1019.6 0.0
03/08:00am 16.8 12.7 4.5 44 5.8 SSW 15 20 8 11 1019.7 1019.3 0.0
03/07:30am 14.1 10.5 2.7 46 5.1 SSW 11 13 6 7 1019.2 1018.7 0.0
03/07:00am 12.6 8.3 0.7 44 5.0 SW 13 13 7 7 1018.9 1018.4 0.0
03/06:30am 12.6 8.1 0.0 42 5.3 SSW 13 13 7 7 1018.7 1018.2 0.0
03/06:00am 13.5 9.7 -0.5 38 5.8 S 9 11 5 6 1018.1 1017.6 0.0
03/05:30am 14.2 10.1 -0.3 37 6.1 S 11 13 6 7 1017.9 1017.4 0.0
03/05:00am 15.1 11.1 0.2 36 6.4 S 11 13 6 7 1017.8 1017.3 0.0
03/04:30am 15.6 11.0 1.4 38 6.3 SSW 15 19 8 10 1017.7 1017.2 0.0
03/04:00am 13.5 9.6 -1.6 35 6.1 SSW 9 9 5 5 1017.6 1017.1 0.0
03/03:30am 15.1 12.1 0.5 37 6.3 SSW 6 6 3 3 1017.5 1017.0 0.0
03/03:00am 16.8 11.8 1.3 35 6.9 WSW 17 24 9 13 1017.8 1017.3 0.0
03/02:30am 13.6 10.2 -2.3 33 6.4 ENE 6 7 3 4 1017.2 1016.7 0.0
03/02:00am 13.3 9.6 -3.0 32 6.4 E 7 9 4 5 1017.5 1017.0 0.0
03/01:30am 15.6 11.1 -0.6 33 6.9 NE 13 15 7 8 1017.4 1016.9 0.0
03/01:00am 14.9 11.0 -1.2 33 6.7 NE 9 11 5 6 1017.6 1017.1 0.0
03/12:30am 15.1 11.2 -1.5 32 6.9 NE 9 11 5 6 1018.0 1017.5 0.0
03/12:00am 16.6 13.3 -0.1 32 7.2 ENE 7 9 4 5 1018.0 1017.5 0.0
 
Date/Time
EST
Temp
°C
App
Temp
°C
Dew
Point
Rel
Hum
%
Delta-T
°C
Wind Press
QNH
hPa
Press
MSL
hPa
Rain
since 9 am
mm
Dir
 
Spd
km/h
Gust
km/h
Spd
kts
Gust
kts
02/11:30pm 16.3 12.1 -0.8 31 7.3 NE 11 11 6 6 1018.1 1017.6 0.0
02/11:00pm 17.3 14.3 0.5 32 7.4 ENE 6 7 3 4 1018.1 1017.6 0.0
02/10:30pm 17.9 15.8 -0.8 28 8.1 CALM 0 0 0 0 1018.3 1017.8 0.0
02/10:00pm 18.9 16.7 -1.5 25 8.7 CALM 0 2 0 1 1018.5 1018.0 0.0
02/09:30pm 20.7 18.4 2.5 30 8.6 WSW 4 4 2 2 1018.5 1018.0 0.0
02/09:00pm 21.2 18.6 1.0 26 9.3 W 4 4 2 2 1018.3 1017.8 0.0
02/08:30pm 22.4 20.1 3.0 28 9.4 WSW 4 6 2 3 1018.2 1017.7 0.0
02/08:00pm 23.7 21.1 3.1 26 10.0 WSW 6 7 3 4 1017.8 1017.3 0.0
02/07:30pm 25.5 23.0 4.0 25 10.8 WNW 6 7 3 4 1017.6 1017.1 0.0
02/07:00pm 25.2 23.0 3.2 24 10.8 W 4 6 2 3 1017.4 1016.9 0.0
02/06:30pm 26.1 23.4 2.7 22 11.5 W 6 6 3 3 1017.1 1016.6 0.0
02/06:00pm 29.0 27.0 4.5 21 12.7 WNW 4 7 2 4 1016.9 1016.4 0.0
02/05:30pm 30.1 27.8 4.7 20 13.3 W 6 9 3 5 1016.7 1016.2 0.0
02/05:00pm 30.5 28.0 5.0 20 13.4 NW 7 11 4 6 1016.5 1016.0 0.0
02/04:30pm 30.7 28.7 4.4 19 13.7 NNW 4 7 2 4 1016.5 1016.0 0.0
02/04:00pm 30.8 28.3 4.5 19 13.7 W 7 17 4 9 1016.6 1016.1 0.0
02/03:30pm 31.0 28.6 5.4 20 13.6 NNW 7 13 4 7 1016.7 1016.2 0.0
02/03:00pm 30.6 27.4 5.1 20 13.4 NNW 11 17 6 9 1016.9 1016.4 0.0
02/02:30pm 30.2 27.7 4.8 20 13.3 NW 7 13 4 7 1017.1 1016.6 0.0
02/02:00pm 30.5 28.3 6.4 22 13.0 NW 7 19 4 10 1017.4 1016.9 0.0
02/01:30pm 29.9 26.6 6.5 23 12.6 N 13 26 7 14 1017.8 1017.3 0.0
02/01:00pm 29.3 25.7 6.7 24 12.1 N 15 26 8 14 1018.6 1018.1 0.0
02/12:30pm 28.4 24.7 6.5 25 11.7 NNE 15 22 8 12 1019.0 1018.5 0.0
02/12:00pm 28.7 24.6 7.9 27 11.4 N 19 28 10 15 1019.4 1019.0 0.0
02/11:30am 28.0 23.6 8.8 30 10.6 NNE 22 28 12 15 1020.0 1019.6 0.0
02/11:00am 26.8 22.5 9.2 33 9.7 NNE 22 26 12 14 1020.4 1020.0 0.0
02/10:30am 25.5 20.8 9.3 36 8.9 NNE 24 32 13 17 1020.7 1020.3 0.0
02/10:00am 23.8 19.0 9.0 39 8.0 NNE 24 32 13 17 1020.7 1020.3 0.0
02/09:30am 22.0 16.6 9.5 45 6.8 NNE 28 33 15 18 1020.6 1020.2 0.0
02/09:00am 18.8 14.3 6.9 46 6.0 NNE 20 28 11 15 1020.5 1020.1 0.0
02/08:30am 15.8 12.3 3.3 43 5.8 NE 11 13 6 7 1020.3 1019.9 0.0
02/08:00am 12.8 9.1 0.2 42 5.3 ENE 9 11 5 6 1020.0 1019.6 0.0
02/07:30am 10.1 6.1 -1.9 43 4.7 ENE 9 9 5 5 1019.6 1019.2 0.0
02/07:00am 9.3 4.9 -2.3 44 4.4 ENE 11 13 6 7 1019.3 1018.8 0.0
02/06:30am 9.6 4.8 -2.3 43 4.6 ENE 13 13 7 7 1019.0 1018.5 0.0
02/06:00am 10.0 5.3 -2.0 43 4.6 ENE 13 13 7 7 1018.7 1018.2 0.0
02/05:30am 10.2 5.8 -2.1 42 4.8 ENE 11 13 6 7 1018.4 1017.9 0.0
02/05:00am 10.6 6.3 -1.8 42 4.8 ENE 11 11 6 6 1018.3 1017.8 0.0
02/04:30am 11.1 6.4 -1.6 41 5.0 ENE 13 15 7 8 1018.3 1017.8 0.0
02/04:00am 10.8 6.4 -2.2 40 5.0 ENE 11 11 6 6 1018.2 1017.7 0.0
02/03:30am 10.6 6.4 -3.5 37 5.3 E 9 9 5 5 1018.3 1017.8 0.0
02/03:00am 11.7 8.1 -2.1 38 5.4 E 7 9 4 5 1018.3 1017.8 0.0
02/02:30am 12.2 8.2 -2.0 37 5.6 E 9 9 5 5 1018.4 1017.9 0.0
02/02:00am 12.4 8.4 -2.2 36 5.8 E 9 9 5 5 1018.6 1018.1 0.0
02/01:30am 12.4 8.7 -2.6 35 5.9 E 7 7 4 4 1018.9 1018.4 0.0
02/01:00am 12.9 9.2 -2.6 34 6.1 E 7 9 4 5 1018.9 1018.4 0.0
02/12:30am 13.2 9.5 -2.7 33 6.3 E 7 7 4 4 1019.0 1018.5 0.0
02/12:00am 13.9 10.2 -2.5 32 6.5 E 7 9 4 5 1019.1 1018.6 0.0
 
Date/Time
EST
Temp
°C
App
Temp
°C
Dew
Point
Rel
Hum
%
Delta-T
°C
Wind Press
QNH
hPa
Press
MSL
hPa
Rain
since 9 am
mm
Dir
 
Spd
km/h
Gust
km/h
Spd
kts
Gust
kts
01/11:30pm 14.6 11.0 -2.3 31 6.8 E 7 7 4 4 1018.9 1018.4 0.0
01/11:00pm 16.1 12.3 -1.0 31 7.2 ENE 9 13 5 7 1018.9 1018.4 0.0
01/10:30pm 16.0 13.0 -1.5 30 7.3 E 4 6 2 3 1018.7 1018.2 0.0
01/10:00pm 16.8 13.4 -1.8 28 7.7 E 6 7 3 4 1018.7 1018.2 0.0
01/09:30pm 18.0 14.8 -0.8 28 8.1 E 6 7 3 4 1018.6 1018.1 0.0
01/09:00pm 18.6 14.9 -0.2 28 8.2 E 9 9 5 5 1018.5 1018.0 0.0
01/08:30pm 19.1 15.4 -0.3 27 8.5 ENE 9 9 5 5 1018.2 1017.7 0.0
01/08:00pm 20.1 16.1 0.5 27 8.8 E 11 11 6 6 1018.0 1017.5 0.0
01/07:30pm 21.1 17.5 0.9 26 9.3 E 9 11 5 6 1017.8 1017.3 0.0
01/07:00pm 22.8 19.0 1.8 25 9.9 E 11 11 6 6 1017.3 1016.8 0.0
01/06:30pm 23.9 20.5 2.1 24 10.4 ENE 9 9 5 5 1017.2 1016.7 0.0
01/06:00pm 26.6 23.5 3.8 23 11.5 NE 9 13 5 7 1017.0 1016.5 0.0
01/05:30pm 28.1 24.6 3.7 21 12.4 NE 11 17 6 9 1017.0 1016.5 0.0
01/05:00pm 28.5 25.1 4.1 21 12.5 NE 11 20 6 11 1017.0 1016.5 0.0
01/04:30pm 28.6 25.1 3.5 20 12.7 NE 11 20 6 11 1017.0 1016.5 0.0
01/04:00pm 29.1 24.4 3.1 19 13.1 NE 17 24 9 13 1017.0 1016.5 0.0
01/03:30pm 28.8 24.6 3.6 20 12.8 NE 15 20 8 11 1017.1 1016.6 0.0
01/03:00pm 29.0 24.0 3.8 20 12.9 NE 19 32 10 17 1017.2 1016.7 0.0
01/02:30pm 28.9 24.3 3.7 20 12.8 NE 17 26 9 14 1017.5 1017.0 0.0
01/02:00pm 28.2 23.4 4.5 22 12.2 NE 19 30 10 16 1018.0 1017.5 0.0
01/01:30pm 27.9 23.3 5.5 24 11.7 NE 19 28 10 15 1018.5 1018.0 0.0
01/01:00pm 27.4 22.6 5.6 25 11.4 NE 20 32 11 17 1019.1 1018.6 0.0
01/12:30pm 27.1 22.5 6.5 27 10.9 NE 20 32 11 17 1019.8 1019.4 0.0
01/12:00pm 26.4 21.2 7.4 30 10.1 NE 24 35 13 19 1020.3 1019.9 0.0

Other Formats:

Comma delimited format used in spreadsheet applications
http://www.bom.gov.au/fwo/IDQ60801/IDQ60801.94342.axf

JavaScript Object Notation format (JSON) in row-major order
http://www.bom.gov.au/fwo/IDQ60801/IDQ60801.94342.json